»·PEaware :: N210AR KBFL-KSMX

N210AR :: KBFL-KSMX

FLIGHT INFORMATION

Flight Status: Arrived
Operator: Privately registered:
United States
More flights under this callsign
Pilot: Max S. (16657)
Aircraft: CESSNA 172 SKYHAWK
(C172)
More flights by this aircraft type
Origin: KBFL Meadows
United States
Destination: KSMX Santa Maria Pub/Capt Hancock
United States
More flights between these airports :: More routes between these airports
Route: KBFL FLW KSMX
File this flight plan on PilotEdge
Remarks:
Altitude:
(Current/Filed)
6,500ft
Speed:
(Current/Filed)
100kts
Departed: 27-Sep-17 09:09 AM
Arrived: 27-Sep-17 10:09 AM
Distance/Time
Traveled:
76nm/1:00
Distance/Time
To Go:
Arrived

Flight Plot

Page will automatically refresh every two minutes.

Flight plan parsing failed; only flown route is shown


Map Options




Map Legend


Flown Route
Filed Route
Departure Airport
Arrival Airport
Navaid (VOR, NDB)
Fix

Horizontal Profiles

Position Reports

Time Latitude Longitude Heading Altitude Ground
Speed
27-Sep-17 08:45 35.429361 -119.046112 226 510ft 0kts
27-Sep-17 08:46 35.429361 -119.046112 226 510ft 0kts
27-Sep-17 08:47 35.429361 -119.046112 226 510ft 0kts
27-Sep-17 08:48 35.429361 -119.046112 226 510ft 0kts
27-Sep-17 08:49 35.429361 -119.046112 226 510ft 0kts
27-Sep-17 08:50 35.429361 -119.046112 226 510ft 0kts
27-Sep-17 08:51 35.429361 -119.046113 225 510ft 0kts
27-Sep-17 08:52 35.429361 -119.046113 225 510ft 0kts
27-Sep-17 08:53 35.429361 -119.046113 225 510ft 0kts
27-Sep-17 08:54 35.429361 -119.046113 225 510ft 0kts
27-Sep-17 08:55 35.429361 -119.046113 225 510ft 0kts
27-Sep-17 08:56 35.429361 -119.046113 225 510ft 0kts
27-Sep-17 08:57 35.429361 -119.046113 225 510ft 0kts
27-Sep-17 08:58 35.429361 -119.046113 225 510ft 0kts
27-Sep-17 08:59 35.429361 -119.046113 225 510ft 0kts
27-Sep-17 09:00 35.429361 -119.046113 225 510ft 0kts
27-Sep-17 09:01 35.429361 -119.046113 225 510ft 0kts
27-Sep-17 09:02 35.429361 -119.046113 225 510ft 0kts
27-Sep-17 09:03 35.429361 -119.046113 225 510ft 0kts
27-Sep-17 09:04 35.428904 -119.046096 163 510ft 5kts
27-Sep-17 09:05 35.427638 -119.045114 144 510ft 9kts
27-Sep-17 09:06 35.425747 -119.043323 178 510ft 9kts
27-Sep-17 09:07 35.424424 -119.043355 332 510ft 3kts
27-Sep-17 09:08 35.425602 -119.043761 218 510ft 6kts
27-Sep-17 09:09 35.425306 -119.044263 259 510ft 0kts
27-Sep-17 09:10 35.425306 -119.044262 259 510ft 0kts
27-Sep-17 09:11 35.425320 -119.044481 286 510ft 0kts
27-Sep-17 09:12 35.426496 -119.047330 318 510ft 40kts
27-Sep-17 09:13 35.437005 -119.059940 319 1076ft 63kts
27-Sep-17 09:14 35.447247 -119.073770 306 1717ft 66kts
27-Sep-17 09:15 35.457153 -119.085540 319 2338ft 57kts
27-Sep-17 09:16 35.456029 -119.095318 204 2799ft 59kts
27-Sep-17 09:17 35.450039 -119.104655 244 3118ft 69kts
27-Sep-17 09:18 35.445215 -119.120197 244 3633ft 65kts
27-Sep-17 09:19 35.438511 -119.128885 225 3976ft 65kts
27-Sep-17 09:20 35.429800 -119.142558 237 4457ft 66kts
27-Sep-17 09:21 35.425001 -119.153610 239 4788ft 68kts
27-Sep-17 09:22 35.417079 -119.169122 231 5301ft 62kts
27-Sep-17 09:23 35.412020 -119.180522 255 5571ft 72kts
27-Sep-17 09:24 35.403618 -119.193509 224 6001ft 69kts
27-Sep-17 09:25 35.394222 -119.204915 219 6408ft 66kts
27-Sep-17 09:26 35.385409 -119.219807 258 6542ft 98kts
27-Sep-17 09:27 35.380571 -119.246372 259 6519ft 118kts
27-Sep-17 09:28 35.375318 -119.275279 258 6512ft 120kts
27-Sep-17 09:29 35.369811 -119.305462 258 6489ft 122kts
27-Sep-17 09:30 35.357973 -119.329980 211 6476ft 121kts
27-Sep-17 09:31 35.336046 -119.344688 208 6476ft 122kts
27-Sep-17 09:32 35.315007 -119.361304 222 6475ft 121kts
27-Sep-17 09:33 35.299703 -119.383079 235 6474ft 115kts
27-Sep-17 09:34 35.287208 -119.406787 240 6475ft 114kts
27-Sep-17 09:35 35.275756 -119.431498 242 6476ft 114kts
27-Sep-17 09:36 35.264707 -119.456684 243 6476ft 114kts
27-Sep-17 09:37 35.253719 -119.482308 243 6476ft 114kts
27-Sep-17 09:38 35.242765 -119.508060 243 6476ft 114kts
27-Sep-17 09:39 35.231721 -119.534115 244 6476ft 114kts
27-Sep-17 09:40 35.220628 -119.560281 244 6502ft 112kts
27-Sep-17 09:41 35.210092 -119.585126 244 6513ft 113kts
27-Sep-17 09:42 35.199340 -119.610490 244 6512ft 113kts
27-Sep-17 09:43 35.188125 -119.636961 243 6522ft 114kts
27-Sep-17 09:44 35.176934 -119.663276 243 6521ft 114kts
27-Sep-17 09:45 35.165322 -119.690592 243 6521ft 113kts
27-Sep-17 09:46 35.153781 -119.717740 243 6521ft 113kts
27-Sep-17 09:47 35.142137 -119.745114 243 6521ft 112kts
27-Sep-17 09:48 35.130581 -119.772273 243 6521ft 112kts
27-Sep-17 09:49 35.118965 -119.799542 243 6520ft 111kts
27-Sep-17 09:50 35.106280 -119.829295 243 6519ft 111kts
27-Sep-17 09:51 35.094714 -119.856396 243 6519ft 111kts
27-Sep-17 09:52 35.084777 -119.884831 249 6519ft 111kts
27-Sep-17 09:53 35.075633 -119.914061 251 6519ft 111kts
27-Sep-17 09:54 35.066700 -119.943397 250 6518ft 111kts
27-Sep-17 09:55 35.057011 -119.973640 249 6511ft 112kts
27-Sep-17 09:56 35.047547 -120.002868 249 6511ft 111kts
27-Sep-17 09:57 35.037876 -120.032675 249 6510ft 111kts
27-Sep-17 09:58 35.028103 -120.062738 249 6508ft 111kts
27-Sep-17 09:59 35.018161 -120.093315 249 6506ft 112kts
27-Sep-17 10:00 35.008271 -120.123698 250 6503ft 112kts
27-Sep-17 10:01 34.998314 -120.154250 250 6501ft 112kts
27-Sep-17 10:02 34.988288 -120.184977 250 6499ft 112kts
27-Sep-17 10:03 34.978195 -120.215885 250 6496ft 113kts
27-Sep-17 10:04 34.968070 -120.246861 250 6494ft 113kts
27-Sep-17 10:05 34.957964 -120.277745 250 6494ft 113kts
27-Sep-17 10:06 34.948241 -120.308651 257 6191ft 115kts
27-Sep-17 10:07 34.941347 -120.340118 253 4874ft 126kts
27-Sep-17 10:08 34.931283 -120.373924 249 2957ft 138kts
27-Sep-17 10:09 34.920370 -120.405142 245 1503ft 121kts
27-Sep-17 10:10 34.906952 -120.425729 219 990ft 67kts
27-Sep-17 10:11 34.893379 -120.432444 182 727ft 66kts
27-Sep-17 10:12 34.889487 -120.442081 317 396ft 63kts
27-Sep-17 10:13 34.897112 -120.450966 320 265ft 17kts
27-Sep-17 10:14 34.898682 -120.451188 96 265ft 0kts
27-Sep-17 10:15 34.898695 -120.450892 77 265ft 8kts
27-Sep-17 10:16 34.900404 -120.451373 91 265ft 4kts
27-Sep-17 10:17 34.900404 -120.451312 88 265ft 0kts
27-Sep-17 10:18 34.900404 -120.451313 88 265ft 0kts
27-Sep-17 10:19 34.900404 -120.451313 88 265ft 0kts
27-Sep-17 10:20 34.900404 -120.451313 88 265ft 0kts
27-Sep-17 10:21 34.900404 -120.451313 88 265ft 0kts
27-Sep-17 10:22 34.900404 -120.451313 88 265ft 0kts
27-Sep-17 10:23 34.900404 -120.451313 88 265ft 0kts

Navigation Log

Ident Type
Flight plan parsing failed, navigation log unavailable